Time;durP1;ratioP1;P1;durP2;ratioP2;P2;SDS_P1;SDS_P2;PMS_P1;PMS_P2;Temp;Humidity;BMP_temperature;BMP_pressure;BME280_temperature;BME280_humidity;BME280_pressure;Samples;Min_cycle;Max_cycle;Signal;HPM_P1;HPM_P2
2022/03/22 00:01:50;;;;;;;136.20;73.70;;;;;;;1.39;32.60;101137.68;106017;1276;107762;-71
2022/03/22 00:04:21;;;;;;;151.30;79.20;;;;;;;1.26;33.06;101135.41;105939;1276;99381;-69
2022/03/22 00:06:50;;;;;;;147.60;77.80;;;;;;;1.19;32.42;101139.27;105965;1276;99307;-68
2022/03/22 00:09:18;;;;;;;157.90;78.60;;;;;;;1.18;32.25;101136.83;105896;1276;112054;-67
2022/03/22 00:11:50;;;;;;;146.30;78.20;;;;;;;1.18;32.38;101134.90;105946;1276;97724;-67
2022/03/22 00:14:18;;;;;;;154.50;78.60;;;;;;;1.16;32.27;101131.41;105915;1276;108370;-68
2022/03/22 00:17:07;;;;;;;146.80;74.50;;;;;;;1.17;32.34;101128.61;105993;1277;99339;-69
2022/03/22 00:19:57;;;;;;;136.80;73.00;;;;;;;1.19;32.24;101126.52;105868;1276;99205;-68
2022/03/22 00:22:27;;;;;;;138.70;72.00;;;;;;;1.20;32.23;101125.64;105832;1277;113338;-68
2022/03/22 00:24:55;;;;;;;132.90;69.30;;;;;;;1.18;32.22;101124.41;105849;1276;99256;-68
2022/03/22 00:27:24;;;;;;;133.40;72.60;;;;;;;1.11;32.46;101127.57;105937;1276;107808;-67
2022/03/22 00:29:54;;;;;;;125.70;64.60;;;;;;;1.09;32.53;101125.29;106021;1276;99835;-68
2022/03/22 00:32:24;;;;;;;115.80;59.40;;;;;;;1.08;32.57;101129.30;105960;1276;99253;-67
2022/03/22 00:34:53;;;;;;;120.30;63.50;;;;;;;1.07;32.53;101128.43;106006;1276;114639;-66
2022/03/22 00:37:21;;;;;;;106.40;57.80;;;;;;;1.09;32.51;101130.35;105972;1276;99324;-67
2022/03/22 00:39:52;;;;;;;116.10;58.20;;;;;;;1.09;32.75;101126.34;105812;1276;108442;-68
2022/03/22 00:42:21;;;;;;;107.70;56.10;;;;;;;1.09;32.92;101125.64;105891;1276;99254;-68
2022/03/22 00:44:51;;;;;;;110.30;59.90;;;;;;;1.08;32.93;101123.02;105936;1276;99214;-67
2022/03/22 00:47:19;;;;;;;111.30;55.10;;;;;;;1.07;32.72;101125.80;105948;1276;113239;-67
2022/03/22 00:49:48;;;;;;;107.20;56.70;;;;;;;1.05;32.81;101123.02;105993;1276;97886;-68
2022/03/22 00:52:18;;;;;;;110.80;56.40;;;;;;;1.01;32.90;101123.20;105992;1277;108314;-70
2022/03/22 00:54:46;;;;;;;105.30;54.30;;;;;;;0.99;32.78;101123.20;105852;1276;99241;-69
2022/03/22 00:57:14;;;;;;;110.30;55.90;;;;;;;0.96;32.96;101120.77;105991;1277;96962;-67
2022/03/22 01:00:05;;;;;;;96.50;50.60;;;;;;;0.96;33.16;101118.83;105978;1276;113400;-67
2022/03/22 01:02:39;;;;;;;97.90;50.60;;;;;;;0.94;33.20;101113.94;105908;1276;99259;-66
2022/03/22 01:05:13;;;;;;;95.60;49.20;;;;;;;0.92;33.15;101113.23;105850;1276;107780;-67
2022/03/22 01:07:41;;;;;;;;;;;;;;;0.92;33.41;101110.81;105951;1276;99221;-67
2022/03/22 01:10:13;;;;;;;84.10;43.90;;;;;;;0.87;34.23;101110.27;106010;1276;99332;-67
2022/03/22 01:12:44;;;;;;;91.10;47.00;;;;;;;0.81;34.98;101109.92;105889;1275;112743;-67
2022/03/22 01:15:20;;;;;;;87.20;44.60;;;;;;;0.72;35.46;101108.70;105990;1276;97859;-68
2022/03/22 01:17:54;;;;;;;83.50;44.10;;;;;;;0.68;35.06;101109.39;105962;1276;107620;-68
2022/03/22 01:20:26;;;;;;;79.50;39.90;;;;;;;0.68;34.89;101107.99;105868;1276;99175;-68
2022/03/22 01:22:56;;;;;;;81.90;41.40;;;;;;;0.71;35.31;101108.86;106117;1276;99226;-69
2022/03/22 01:25:27;;;;;;;94.00;47.00;;;;;;;0.70;35.19;101108.52;106097;1277;114116;-70
2022/03/22 01:27:57;;;;;;;88.40;45.80;;;;;;;0.72;34.87;101108.52;106107;1277;99310;-70
2022/03/22 01:30:27;;;;;;;86.20;45.80;;;;;;;0.73;35.09;101111.32;105992;1277;107764;-68
2022/03/22 01:32:57;;;;;;;85.60;42.80;;;;;;;0.73;35.15;101113.25;106041;1277;96542;-68
2022/03/22 01:35:31;;;;;;;84.30;45.00;;;;;;;0.70;35.55;101109.56;105999;1276;99311;-68
2022/03/22 01:38:01;;;;;;;85.60;42.50;;;;;;;0.69;35.53;101111.14;105963;1276;113475;-68
2022/03/22 01:40:32;;;;;;;81.00;41.20;;;;;;;0.67;35.31;101113.05;105996;1276;99288;-67
2022/03/22 01:43:03;;;;;;;83.60;41.00;;;;;;;0.68;35.59;101109.38;105931;1276;109440;-67
2022/03/22 01:45:33;;;;;;;76.50;40.00;;;;;;;0.72;35.78;101114.82;105993;1276;99309;-66
2022/03/22 01:48:04;;;;;;;83.10;40.50;;;;;;;0.77;36.31;101116.21;106038;1276;97619;-66
2022/03/22 01:50:36;;;;;;;82.40;41.50;;;;;;;0.80;36.39;101118.66;106029;1276;112716;-67
2022/03/22 01:53:10;;;;;;;75.40;37.30;;;;;;;0.84;36.44;101112.53;105945;1276;98378;-67
2022/03/22 01:55:40;;;;;;;78.50;40.40;;;;;;;0.86;36.13;101114.98;105996;1276;107715;-66
2022/03/22 01:58:08;;;;;;;84.10;40.30;;;;;;;0.89;35.82;101117.77;105953;1276;96666;-67
2022/03/22 02:00:36;;;;;;;78.80;40.50;;;;;;;0.91;35.78;101117.44;105879;1276;97716;-68
2022/03/22 02:05:57;;;;;;;73.90;39.50;;;;;;;0.89;35.60;101114.63;105951;1276;97701;-67
2022/03/22 02:08:31;;;;;;;82.40;42.30;;;;;;;0.81;35.79;101111.49;105988;1276;107662;-67
2022/03/22 02:11:02;;;;;;;84.20;43.10;;;;;;;0.78;35.90;101112.20;106076;1276;99347;-68
2022/03/22 02:13:32;;;;;;;76.00;40.50;;;;;;;0.73;35.72;101112.70;106065;1276;96652;-65
2022/03/22 02:16:02;;;;;;;83.50;43.60;;;;;;;0.69;35.80;101108.69;106017;1276;112766;-69
2022/03/22 02:18:33;;;;;;;76.10;40.90;;;;;;;0.66;35.84;101109.56;106103;1277;99205;-68
2022/03/22 02:21:04;;;;;;;82.80;42.60;;;;;;;0.62;35.93;101107.46;106041;1276;106887;-67
2022/03/22 02:23:52;;;;;;;82.50;41.80;;;;;;;0.55;35.75;101106.59;106050;1276;97236;-67
2022/03/22 02:26:23;;;;;;;88.10;41.80;;;;;;;0.49;35.90;101104.64;105967;1276;99217;-67
2022/03/22 02:28:53;;;;;;;80.70;41.20;;;;;;;0.46;35.88;101103.95;106002;1276;113203;-68
2022/03/22 02:31:30;;;;;;;76.90;40.10;;;;;;;0.45;35.80;101106.21;106056;1276;99346;-69
2022/03/22 02:33:59;;;;;;;73.10;39.90;;;;;;;0.43;35.79;101103.23;105906;1276;108301;-66
2022/03/22 02:36:27;;;;;;;77.20;40.10;;;;;;;0.41;35.62;101104.30;105935;1276;98332;-67
2022/03/22 02:38:56;;;;;;;66.50;35.70;;;;;;;0.37;35.79;101104.30;105952;1276;99330;-67
2022/03/22 02:41:27;;;;;;;75.00;36.30;;;;;;;0.36;35.73;101105.33;106008;1276;113575;-67
2022/03/22 02:43:57;;;;;;;75.30;38.40;;;;;;;0.35;35.72;101107.25;105990;1276;96593;-68
2022/03/22 02:46:25;;;;;;;65.90;34.40;;;;;;;0.33;35.85;101109.51;105852;1276;109051;-68
2022/03/22 02:48:54;;;;;;;74.80;38.00;;;;;;;0.34;36.67;101111.61;105872;1276;99318;-68
2022/03/22 02:51:22;;;;;;;74.00;34.20;;;;;;;0.31;37.51;101112.81;105908;1276;99223;-69
2022/03/22 02:53:52;;;;;;;71.40;34.70;;;;;;;0.26;37.67;101109.83;105991;1276;112414;-68
2022/03/22 02:56:20;;;;;;;69.90;35.10;;;;;;;0.24;37.39;101116.80;105894;1276;99239;-68
2022/03/22 02:58:48;;;;;;;71.30;35.60;;;;;;;0.23;37.83;101115.75;105969;1276;108476;-67
2022/03/22 03:01:17;;;;;;;69.60;36.10;;;;;;;0.19;38.04;101117.68;105889;1277;99937;-67
2022/03/22 03:03:46;;;;;;;73.90;37.60;;;;;;;0.17;37.65;101113.84;105905;1276;96638;-66
2022/03/22 03:06:17;;;;;;;71.60;37.70;;;;;;;0.15;37.41;101116.62;105888;1276;113652;-69
2022/03/22 03:08:45;;;;;;;78.00;39.60;;;;;;;0.14;37.41;101118.52;105848;1276;99246;-67
2022/03/22 03:11:13;;;;;;;73.90;39.10;;;;;;;0.16;37.23;101121.84;105973;1276;108381;-64
2022/03/22 03:16:28;;;;;;;83.40;42.40;;;;;;;0.19;37.40;101126.23;105984;1276;96663;-67
2022/03/22 03:18:59;;;;;;;77.80;39.10;;;;;;;0.19;37.09;101124.32;105955;1276;113717;-66
2022/03/22 03:21:27;;;;;;;85.40;43.80;;;;;;;0.17;37.20;101124.13;106022;1276;96537;-67
2022/03/22 03:23:56;;;;;;;92.80;46.50;;;;;;;0.14;37.26;101123.24;105883;1276;108410;-67
2022/03/22 03:26:24;;;;;;;74.40;38.20;;;;;;;0.09;37.14;101124.96;105984;1276;99352;-66
2022/03/22 03:28:54;;;;;;;109.50;56.70;;;;;;;0.06;37.17;101127.05;105972;1276;96522;-68
2022/03/22 03:31:25;;;;;;;139.10;71.30;;;;;;;0.02;37.05;101130.34;105920;1276;113382;-67
2022/03/22 03:33:54;;;;;;;163.50;81.20;;;;;;;-0.06;37.25;101128.05;105936;1276;99215;-68
2022/03/22 03:36:22;;;;;;;178.20;86.70;;;;;;;-0.18;37.55;101128.52;105354;1277;832751;-67
2022/03/22 03:38:50;;;;;;;129.00;61.30;;;;;;;-0.24;37.51;101129.36;106006;1276;99226;-68
2022/03/22 03:47:11;;;;;;;71.00;36.40;;;;;;;-0.32;37.86;101130.73;105882;1277;99008;-67
2022/03/22 03:49:43;;;;;;;80.40;38.60;;;;;;;-0.36;38.11;101130.34;105827;1276;108518;-67
2022/03/22 03:52:17;;;;;;;73.50;37.00;;;;;;;-0.42;38.20;101131.36;105948;1276;96693;-66
2022/03/22 03:54:46;;;;;;;73.00;35.10;;;;;;;-0.43;38.59;101137.11;105909;1276;97681;-68
2022/03/22 03:57:16;;;;;;;76.80;38.00;;;;;;;-0.47;38.57;101135.00;105985;1276;112420;-68
2022/03/22 03:59:46;;;;;;;71.80;36.00;;;;;;;-0.52;38.29;101132.17;105979;1276;99281;-68
2022/03/22 04:02:18;;;;;;;88.00;43.40;;;;;;;-0.52;38.38;101134.27;105879;1276;108580;-67
2022/03/22 04:04:55;;;;;;;78.60;38.50;;;;;;;-0.49;38.08;101134.10;105927;1277;99378;-68
2022/03/22 04:07:27;;;;;;;68.80;34.50;;;;;;;-0.49;38.65;101135.67;105963;1276;99256;-68
2022/03/22 04:09:55;;;;;;;76.00;37.20;;;;;;;-0.52;38.52;101140.71;105862;1279;112881;-69
2022/03/22 04:12:24;;;;;;;83.80;42.60;;;;;;;-0.53;38.49;101140.02;105888;1276;99212;-69
2022/03/22 04:14:53;;;;;;;73.00;35.70;;;;;;;-0.51;38.44;101143.33;105930;1276;109279;-67
2022/03/22 04:17:24;;;;;;;84.10;40.30;;;;;;;-0.51;38.30;101145.08;105847;1276;96636;-69
2022/03/22 04:19:53;;;;;;;83.00;39.70;;;;;;;-0.52;38.41;101146.98;105838;1276;97747;-68
2022/03/22 04:22:22;;;;;;;85.00;42.60;;;;;;;-0.53;38.42;101141.93;105950;1276;113011;-67
2022/03/22 04:24:51;;;;;;;70.90;34.80;;;;;;;-0.54;38.45;101142.45;105960;1276;99265;-67
2022/03/22 04:33:05;;;;;;;75.40;38.30;;;;;;;-0.60;38.85;101144.84;105871;1277;96840;-68
2022/03/22 04:35:32;;;;;;;72.80;34.90;;;;;;;-0.62;38.86;101147.63;106013;1277;113152;-67
2022/03/22 04:38:00;;;;;;;71.50;34.80;;;;;;;-0.62;38.33;101150.07;105854;1276;96559;-67
2022/03/22 04:40:29;;;;;;;75.80;37.80;;;;;;;-0.65;38.59;101147.95;105908;1276;106982;-67
2022/03/22 04:42:57;;;;;;;70.90;28.60;;;;;;;-0.66;38.50;101148.64;105853;1276;99223;-70
2022/03/22 04:45:26;;;;;;;68.50;33.60;;;;;;;-0.73;39.61;101147.55;106010;1276;99346;-67
2022/03/22 04:47:54;;;;;;;73.80;34.60;;;;;;;-0.80;40.27;101148.54;105958;1276;113250;-67
2022/03/22 04:50:24;;;;;;;67.80;35.00;;;;;;;-0.88;40.33;101149.36;105957;1276;99344;-67
2022/03/22 04:58:29;;;;;;;66.30;32.20;;;;;;;-0.91;39.92;101151.08;106006;1276;99240;-68
2022/03/22 05:00:59;;;;;;;69.30;35.50;;;;;;;-0.90;40.04;101146.89;105883;1276;113386;-66
2022/03/22 05:03:28;;;;;;;70.40;34.60;;;;;;;-0.89;39.99;101150.39;105853;1276;99201;-68
2022/03/22 05:09:10;;;;;;;67.60;34.40;;;;;;;-0.85;39.96;101150.77;105514;1284;99455;-70
2022/03/22 05:11:40;;;;;;;70.00;34.40;;;;;;;-0.82;40.27;101146.79;105535;1284;99484;-68
2022/03/22 05:14:09;;;;;;;64.70;31.50;;;;;;;-0.77;39.81;101150.30;105739;1277;113133;-68
2022/03/22 05:16:39;;;;;;;67.60;34.70;;;;;;;-0.72;39.95;101153.98;106074;1277;99221;-68
2022/03/22 05:19:08;;;;;;;64.00;32.40;;;;;;;-0.70;40.02;101149.31;106037;1277;107768;-68
2022/03/22 05:21:37;;;;;;;64.70;34.20;;;;;;;-0.66;39.92;101153.52;106058;1277;99240;-68
2022/03/22 05:24:09;;;;;;;67.30;33.90;;;;;;;-0.61;39.97;101152.51;105964;1276;99358;-72
2022/03/22 05:26:38;;;;;;;67.50;33.20;;;;;;;-0.56;39.86;101155.68;105913;1276;112812;-68
2022/03/22 05:29:07;;;;;;;69.80;34.20;;;;;;;-0.50;40.25;101153.10;106006;1277;96623;-67
2022/03/22 05:31:36;;;;;;;68.90;34.50;;;;;;;-0.45;40.29;101152.27;106011;1277;108464;-68
2022/03/22 05:34:08;;;;;;;77.00;39.10;;;;;;;-0.40;40.48;101154.73;105983;1277;99348;-69
2022/03/22 05:36:35;;;;;;;71.50;34.20;;;;;;;-0.34;40.56;101147.96;105917;1277;96594;-69
2022/03/22 05:39:04;;;;;;;73.00;38.40;;;;;;;-0.28;40.47;101146.61;105890;1276;112781;-68
2022/03/22 05:41:33;;;;;;;67.00;33.20;;;;;;;-0.21;40.63;101146.64;105940;1277;96541;-69
2022/03/22 05:44:01;;;;;;;67.40;33.80;;;;;;;-0.16;40.80;101148.06;105931;1277;108381;-69
2022/03/22 05:46:31;;;;;;;71.60;35.90;;;;;;;-0.12;40.80;101151.75;105978;1276;99230;-69
2022/03/22 05:48:59;;;;;;;68.50;36.70;;;;;;;-0.06;40.71;101152.11;105843;1277;99199;-66
2022/03/22 05:51:27;;;;;;;78.80;40.00;;;;;;;0.00;40.62;101156.69;105988;1276;113345;-68
2022/03/22 05:53:57;;;;;;;92.20;42.70;;;;;;;0.07;40.97;101158.27;105972;1276;96580;-66
2022/03/22 05:56:25;;;;;;;77.30;41.90;;;;;;;0.13;41.04;101159.88;105920;1279;106833;-67
2022/03/22 05:58:53;;;;;;;81.50;42.80;;;;;;;0.20;40.83;101162.88;105863;1278;99329;-69
2022/03/22 06:01:22;;;;;;;71.30;39.30;;;;;;;0.28;41.20;101157.48;105925;1278;96641;-70
2022/03/22 06:03:52;;;;;;;77.60;40.10;;;;;;;0.35;40.88;101159.27;105911;1278;111474;-67
2022/03/22 06:06:23;;;;;;;68.80;36.70;;;;;;;0.42;40.97;101161.90;105852;1276;99264;-66
2022/03/22 06:08:52;;;;;;;87.50;43.00;;;;;;;0.50;41.17;101164.52;105846;1278;108203;-67
2022/03/22 06:11:21;;;;;;;76.00;40.70;;;;;;;0.56;41.22;101164.38;105843;1276;98326;-69
2022/03/22 06:13:49;;;;;;;81.60;41.00;;;;;;;0.64;41.30;101165.09;105827;1277;99223;-68
2022/03/22 06:16:18;;;;;;;81.00;42.80;;;;;;;0.71;41.18;101169.64;105849;1277;112322;-67
2022/03/22 06:18:48;;;;;;;84.80;43.70;;;;;;;0.80;41.25;101170.54;105863;1276;97635;-68
2022/03/22 06:21:17;;;;;;;87.90;45.10;;;;;;;0.87;41.27;101165.65;105846;1276;107610;-68
2022/03/22 06:23:47;;;;;;;86.30;44.10;;;;;;;0.96;41.41;101167.75;105828;1276;96662;-68
2022/03/22 06:26:18;;;;;;;80.50;40.40;;;;;;;1.04;41.63;101169.33;105886;1276;99247;-68
2022/03/22 06:28:46;;;;;;;94.30;49.30;;;;;;;1.13;42.50;101170.90;105952;1278;112671;-68
2022/03/22 06:31:16;;;;;;;90.60;48.60;;;;;;;1.23;42.77;101171.95;105857;1278;96543;-67
2022/03/22 06:33:44;;;;;;;107.00;49.80;;;;;;;1.33;43.10;101173.70;105866;1276;108984;-68
2022/03/22 06:36:13;;;;;;;101.70;52.50;;;;;;;1.42;43.08;101173.16;105867;1279;99239;-67
2022/03/22 06:38:41;;;;;;;92.10;48.70;;;;;;;1.52;42.74;101170.00;105881;1277;96586;-69
2022/03/22 06:41:09;;;;;;;93.30;48.10;;;;;;;1.63;43.28;101167.70;105827;1277;113347;-67
2022/03/22 06:43:38;;;;;;;94.80;47.80;;;;;;;1.76;42.99;101171.36;105869;1278;99268;-68
2022/03/22 06:46:07;;;;;;;101.20;48.90;;;;;;;1.89;43.01;101167.28;105895;1276;107753;-67
2022/03/22 06:48:38;;;;;;;93.40;48.00;;;;;;;2.02;43.09;101169.69;105871;1276;99362;-69
2022/03/22 06:51:09;;;;;;;88.00;46.90;;;;;;;2.17;43.38;101168.06;105846;1276;99255;-66
2022/03/22 06:53:37;;;;;;;90.90;46.90;;;;;;;2.31;43.04;101164.67;105864;1276;113453;-65
2022/03/22 06:56:05;;;;;;;83.70;45.90;;;;;;;2.43;43.36;101165.14;105867;1276;97719;-68
2022/03/22 06:58:35;;;;;;;80.00;43.20;;;;;;;2.53;43.24;101164.56;105856;1277;108085;-68
2022/03/22 07:01:05;;;;;;;73.70;40.20;;;;;;;2.65;43.36;101163.62;105925;1277;99252;-68
2022/03/22 07:03:36;;;;;;;76.70;42.00;;;;;;;2.74;43.21;101165.82;106095;1277;97785;-66
2022/03/22 07:06:06;;;;;;;79.50;41.50;;;;;;;2.85;42.90;101166.82;105864;1276;114008;-67
2022/03/22 07:08:35;;;;;;;80.40;42.10;;;;;;;2.95;43.06;101163.23;105838;1276;97933;-67
2022/03/22 07:13:52;;;;;;;79.50;42.40;;;;;;;3.18;42.82;101165.86;105856;1277;99192;-67
2022/03/22 07:16:27;;;;;;;77.40;43.00;;;;;;;3.31;42.73;101166.09;105789;1277;99253;-67
2022/03/22 07:18:58;;;;;;;78.70;43.70;;;;;;;3.44;43.37;101166.68;105962;1276;113436;-66
2022/03/22 07:21:29;;;;;;;82.00;45.50;;;;;;;3.58;43.28;101168.65;105940;1276;96630;-67
2022/03/22 07:23:58;;;;;;;78.60;44.40;;;;;;;3.70;43.34;101166.77;105917;1277;108338;-67
2022/03/22 07:26:26;;;;;;;77.20;44.20;;;;;;;3.83;43.30;101168.74;105832;1277;99240;-68
2022/03/22 07:28:56;;;;;;;77.10;43.00;;;;;;;3.97;43.16;101168.23;106073;1277;99304;-67
2022/03/22 07:31:24;;;;;;;82.50;44.30;;;;;;;4.11;43.39;101172.27;105961;1277;113670;-69
2022/03/22 07:33:54;;;;;;;76.80;42.90;;;;;;;4.24;43.22;101172.13;105995;1277;99214;-68
2022/03/22 07:36:24;;;;;;;77.30;41.80;;;;;;;4.37;43.10;101170.20;105922;1277;108291;-68
2022/03/22 07:39:13;;;;;;;78.20;43.10;;;;;;;4.54;43.33;101168.91;105869;1277;99321;-72
2022/03/22 07:41:44;;;;;;;81.00;44.10;;;;;;;4.70;43.40;101165.16;105974;1277;99205;-69
2022/03/22 07:44:12;;;;;;;79.40;42.20;;;;;;;4.92;43.43;101163.61;105992;1277;113326;-68
2022/03/22 07:46:43;;;;;;;84.80;45.40;;;;;;;5.15;43.33;101165.35;106024;1277;99282;-68
2022/03/22 07:54:49;;;;;;;89.30;49.10;;;;;;;6.17;43.59;101170.89;105900;1277;97934;-70
2022/03/22 07:57:20;;;;;;;95.30;50.20;;;;;;;6.54;43.67;101168.51;105866;1276;113237;-68
2022/03/22 07:59:49;;;;;;;83.30;45.20;;;;;;;6.87;43.73;101165.48;106077;1277;99323;-68
2022/03/22 08:02:19;;;;;;;81.50;47.20;;;;;;;7.17;43.57;101159.13;106047;1277;107578;-68
2022/03/22 08:04:51;;;;;;;83.30;44.10;;;;;;;7.52;43.49;101161.95;105982;1277;99278;-70
2022/03/22 08:07:19;;;;;;;80.20;45.00;;;;;;;7.87;43.60;101156.42;105929;1277;99334;-69
2022/03/22 08:09:47;;;;;;;76.30;43.00;;;;;;;8.20;43.55;101156.71;105797;1276;112798;-70
2022/03/22 08:12:15;;;;;;;74.90;42.50;;;;;;;8.49;43.53;101154.09;105854;1276;99215;-66
2022/03/22 08:14:46;;;;;;;73.70;41.40;;;;;;;8.82;43.65;101151.31;106041;1277;107948;-69
2022/03/22 08:17:14;;;;;;;70.10;42.50;;;;;;;9.19;43.55;101150.81;105984;1277;97673;-67
2022/03/22 08:19:42;;;;;;;66.50;37.80;;;;;;;9.58;43.56;101150.76;106021;1277;99263;-67
2022/03/22 08:22:12;;;;;;;63.00;33.90;;;;;;;9.97;43.60;101147.94;106040;1277;113309;-70
2022/03/22 08:24:42;;;;;;;63.20;34.60;;;;;;;10.37;43.61;101147.86;106079;1277;99314;-70
2022/03/22 08:27:12;;;;;;;54.90;32.20;;;;;;;10.78;43.53;101144.15;105861;1276;108462;-68
2022/03/22 08:29:41;;;;;;;54.10;31.60;;;;;;;11.22;43.48;101138.11;105831;1276;99271;-69
2022/03/22 08:32:09;;;;;;;52.40;30.30;;;;;;;11.77;43.49;101140.92;105928;1277;99423;-69
2022/03/22 08:34:38;;;;;;;57.90;32.20;;;;;;;12.44;43.41;101136.98;105931;1277;113110;-68
2022/03/22 08:37:08;;;;;;;53.20;30.60;;;;;;;13.25;43.42;101131.41;106075;1277;96700;-72
2022/03/22 08:39:36;;;;;;;46.20;26.70;;;;;;;14.22;43.56;101131.20;106033;1277;107724;-69
2022/03/22 08:42:08;;;;;;;45.80;27.20;;;;;;;15.33;43.30;101125.80;106007;1277;96652;-71
2022/03/22 08:44:35;;;;;;;43.90;26.40;;;;;;;16.46;43.19;101121.89;105942;1277;97794;-68
2022/03/22 08:47:07;;;;;;;44.60;24.90;;;;;;;17.63;42.92;101116.34;105921;1277;112785;-70
2022/03/22 08:49:36;;;;;;;41.70;22.80;;;;;;;18.74;42.95;101112.20;105944;1277;99371;-71
2022/03/22 08:52:05;;;;;;;42.80;21.00;;;;;;;19.73;43.05;101110.95;105931;1277;107751;-71
2022/03/22 08:54:33;;;;;;;36.50;20.10;;;;;;;20.21;40.53;101108.67;105962;1277;99259;-73
2022/03/22 08:57:01;;;;;;;32.70;20.70;;;;;;;20.27;40.63;101106.58;105913;1277;97791;-69
2022/03/22 08:59:29;;;;;;;31.30;20.20;;;;;;;20.75;40.03;101102.98;105889;1278;112741;-70
2022/03/22 09:01:57;;;;;;;25.70;14.40;;;;;;;21.22;40.88;101102.12;105977;1277;99263;-70
2022/03/22 09:07:15;;;;;;;27.40;12.70;;;;;;;22.26;41.15;101095.83;105920;1278;96717;-69
2022/03/22 09:09:44;;;;;;;24.40;11.90;;;;;;;22.36;40.73;101091.13;105979;1277;99322;-71
2022/03/22 09:12:12;;;;;;;26.10;11.90;;;;;;;22.42;40.53;101091.38;105882;1276;113446;-69
2022/03/22 09:14:40;;;;;;;30.60;18.90;;;;;;;22.32;38.72;101094.61;106377;1277;99323;-68
2022/03/22 09:17:09;;;;;;;23.90;13.20;;;;;;;22.11;38.96;101091.79;105821;1277;108863;-69
2022/03/22 09:19:39;;;;;;;25.20;12.70;;;;;;;22.16;38.69;101092.00;106287;1276;99256;-69
2022/03/22 09:22:26;;;;;;;24.70;13.50;;;;;;;22.19;38.61;101088.53;105904;1277;97736;-69
2022/03/22 09:24:54;;;;;;;25.90;13.40;;;;;;;22.24;38.67;101084.41;105796;1277;113325;-67
2022/03/22 09:27:26;;;;;;;24.50;12.80;;;;;;;22.51;38.49;101087.11;105943;1277;99316;-67
2022/03/22 09:29:56;;;;;;;24.30;12.40;;;;;;;22.71;38.32;101089.14;105917;1277;108338;-66
2022/03/22 09:32:27;;;;;;;22.30;10.90;;;;;;;22.81;38.02;101082.61;105947;1277;99202;-66
2022/03/22 09:34:55;;;;;;;22.80;11.30;;;;;;;22.97;37.76;101078.07;105982;1277;99304;-68
2022/03/22 09:37:31;;;;;;;23.50;12.70;;;;;;;22.99;36.70;101078.01;105871;1277;113377;-65
2022/03/22 09:40:02;;;;;;;24.90;12.50;;;;;;;23.10;37.13;101074.61;105935;1277;99255;-70
2022/03/22 09:42:31;;;;;;;22.80;11.90;;;;;;;23.34;37.25;101074.44;105940;1278;108414;-67
2022/03/22 09:45:04;;;;;;;23.20;11.90;;;;;;;23.55;36.43;101069.55;105906;1277;99244;-69
2022/03/22 09:47:32;;;;;;;22.20;11.30;;;;;;;23.67;36.17;101064.42;105895;1277;99078;-70
2022/03/22 09:50:02;;;;;;;26.00;10.60;;;;;;;23.95;36.43;101062.33;105874;1277;113180;-68
2022/03/22 09:52:34;;;;;;;24.60;11.10;;;;;;;24.10;36.02;101060.45;105902;1277;96766;-67
2022/03/22 09:55:07;;;;;;;22.80;10.30;;;;;;;24.09;35.71;101059.08;105869;1277;108954;-67
2022/03/22 09:57:39;;;;;;;20.80;9.80;;;;;;;23.92;35.30;101060.78;106067;1277;99251;-66
2022/03/22 10:00:14;;;;;;;22.90;10.80;;;;;;;23.62;35.28;101060.70;105997;1278;99204;-67
2022/03/22 10:02:42;;;;;;;22.50;10.10;;;;;;;23.43;35.30;101061.21;105907;1277;112768;-66
2022/03/22 10:05:28;;;;;;;23.30;10.30;;;;;;;23.25;34.51;101062.55;105902;1277;96527;-66
2022/03/22 10:08:10;;;;;;;23.00;9.60;;;;;;;22.92;34.54;101059.46;105921;1277;107741;-68
2022/03/22 10:10:59;;;;;;;20.80;9.30;;;;;;;22.64;34.46;101061.21;105936;1277;99451;-66
2022/03/22 10:13:33;;;;;;;20.20;8.80;;;;;;;22.36;34.02;101059.92;106039;1277;99381;-67
2022/03/22 10:16:08;;;;;;;22.80;9.30;;;;;;;22.14;33.72;101055.14;106021;1277;112764;-66
2022/03/22 10:18:39;;;;;;;21.10;9.30;;;;;;;21.91;33.35;101055.01;105998;1277;99320;-68
2022/03/22 10:21:11;;;;;;;;;;;;;;;21.71;33.33;101056.81;105976;1277;108041;-66
2022/03/22 10:23:54;;;;;;;21.30;8.70;;;;;;;21.48;33.26;101054.42;105981;1278;99396;-66
2022/03/22 10:26:33;;;;;;;17.70;7.80;;;;;;;21.36;32.74;101044.16;105983;1277;97625;-67
2022/03/22 10:29:01;;;;;;;19.50;8.50;;;;;;;21.19;32.55;101048.84;105930;1277;112749;-68
2022/03/22 10:31:39;;;;;;;20.50;8.20;;;;;;;20.91;32.33;101046.28;105944;1277;96994;-67
2022/03/22 10:34:15;;;;;;;20.90;8.70;;;;;;;20.65;32.21;101044.70;105896;1277;107531;-68
2022/03/22 10:36:43;;;;;;;22.40;9.20;;;;;;;20.46;32.05;101042.80;105901;1278;99336;-68
2022/03/22 10:39:13;;;;;;;18.50;8.40;;;;;;;20.40;32.15;101042.40;105991;1277;96613;-67
2022/03/22 10:41:47;;;;;;;22.00;9.90;;;;;;;20.39;32.22;101037.49;105998;1277;113384;-67
2022/03/22 10:44:18;;;;;;;22.40;9.60;;;;;;;20.31;31.82;101036.50;105999;1277;99233;-67
2022/03/22 10:46:50;;;;;;;20.80;8.80;;;;;;;20.19;31.92;101034.58;105955;1277;107536;-67
2022/03/22 10:49:20;;;;;;;20.30;9.10;;;;;;;20.11;31.52;101031.30;105993;1277;99246;-67
2022/03/22 10:52:11;;;;;;;23.80;8.80;;;;;;;20.03;31.30;101030.99;106031;1277;96741;-67
2022/03/22 10:54:40;;;;;;;24.00;9.80;;;;;;;20.02;31.43;101028.77;105973;1277;113381;-66
2022/03/22 10:57:15;;;;;;;19.80;9.00;;;;;;;19.96;31.08;101030.89;105995;1277;99246;-67
2022/03/22 10:59:48;;;;;;;19.20;8.80;;;;;;;19.87;31.34;101032.10;106014;1277;107738;-66
2022/03/22 11:02:24;;;;;;;21.90;9.40;;;;;;;19.88;31.42;101026.66;106019;1277;99244;-68
2022/03/22 11:04:56;;;;;;;26.10;10.00;;;;;;;19.90;31.45;101025.38;106070;1277;99301;-66
2022/03/22 11:07:27;;;;;;;19.00;8.20;;;;;;;19.89;31.10;101025.80;105974;1276;113383;-70
2022/03/22 11:10:04;;;;;;;20.30;8.50;;;;;;;19.85;31.16;101021.80;105957;1277;99326;-67
2022/03/22 11:12:37;;;;;;;25.20;12.90;;;;;;;19.80;30.97;101015.39;105916;1277;107795;-67
2022/03/22 11:15:10;;;;;;;23.00;10.50;;;;;;;19.73;31.04;101011.41;106087;1277;99412;-66
2022/03/22 11:17:41;;;;;;;22.60;10.80;;;;;;;19.70;30.96;101006.11;106045;1276;97622;-68
2022/03/22 11:20:14;;;;;;;20.20;9.10;;;;;;;19.71;30.99;101005.50;105918;1276;113402;-65
2022/03/22 11:22:49;;;;;;;21.10;9.40;;;;;;;19.70;30.88;100999.44;105963;1276;99277;-68
2022/03/22 11:25:38;;;;;;;21.00;9.10;;;;;;;19.67;30.54;100998.83;105966;1277;107583;-68
2022/03/22 11:28:11;;;;;;;22.70;9.50;;;;;;;19.53;30.47;101000.06;105952;1277;97849;-67
2022/03/22 11:30:44;;;;;;;21.00;8.90;;;;;;;19.41;30.51;100993.48;105916;1275;99157;-69
2022/03/22 11:36:26;;;;;;;20.70;9.40;;;;;;;19.41;30.46;100983.91;105913;1277;99179;-68
2022/03/22 11:38:59;;;;;;;21.50;9.60;;;;;;;19.43;30.49;100982.52;105855;1277;105703;-68
2022/03/22 11:44:37;;;;;;;20.40;8.40;;;;;;;19.41;30.37;100977.43;105961;1277;96735;-67
2022/03/22 11:47:12;;;;;;;22.80;9.10;;;;;;;19.46;30.41;100973.27;105938;1277;113326;-69
2022/03/22 11:49:54;;;;;;;24.00;10.40;;;;;;;19.44;30.26;100970.94;105955;1277;99240;-68
2022/03/22 11:52:36;;;;;;;22.60;10.50;;;;;;;19.37;30.13;100968.39;105870;1277;107774;-67
2022/03/22 11:55:12;;;;;;;22.10;9.70;;;;;;;19.28;30.04;100964.08;105779;1277;99239;-66
2022/03/22 11:58:09;;;;;;;21.90;9.40;;;;;;;19.27;29.92;100960.36;105699;1277;99291;-68
2022/03/22 12:00:44;;;;;;;24.30;10.20;;;;;;;19.29;29.96;100961.15;105921;1277;113802;-67
2022/03/22 12:03:18;;;;;;;23.60;10.00;;;;;;;19.33;30.02;100957.20;105885;1277;97812;-68
2022/03/22 12:05:48;;;;;;;;;;;;;;;19.31;29.92;100953.19;105947;1277;108318;-66